This is the latest recevied weather packets stored in our database for station/object KQ7A. If no packets are shown the sender has not sent any weather packets the latest 10 day(s).
| Time | Temp. | Humidity | Pressure | Rain* | Wind** | Luminosity | Snow |
|---|---|---|---|---|---|---|---|
| 1777428655 | 10° C | 55% | 1019.7 hPa | 0 mm | - | 21 W/m² | - |
| 1777428351 | 10° C | 55% | 1019.6 hPa | 0 mm | - | 23 W/m² | - |
| 1777428047 | 10.56° C | 55% | 1019.6 hPa | 0 mm | - | 26 W/m² | - |
| 1777427743 | 11.67° C | 50% | 1019.4 hPa | 0 mm | - | 27 W/m² | - |
| 1777427440 | 11.67° C | 52% | 1019.7 hPa | 0 mm | - | 30 W/m² | - |
| 1777427135 | 11.67° C | 49% | 1019.6 hPa | 0 mm | - | 31 W/m² | - |
| 1777426834 | 11.67° C | 49% | 1019.3 hPa | 0 mm | - | 33 W/m² | - |
| 1777426531 | 11.67° C | 50% | 1019.6 hPa | 0 mm | - | 40 W/m² | - |
| 1777426227 | 11.67° C | 50% | 1019.4 hPa | 0 mm | - | 48 W/m² | - |
| 1777425922 | 11.67° C | 49% | 1019.7 hPa | 0 mm | - | 54 W/m² | - |
| 1777425617 | 11.67° C | 51% | 1019.6 hPa | 0 mm | - | 59 W/m² | - |
| 1777425313 | 11.67° C | 51% | 1019.7 hPa | 0 mm | - | 64 W/m² | - |
| 1777425010 | 11.67° C | 50% | 1019.4 hPa | 0 mm | - | 69 W/m² | - |
| 1777424705 | 12.22° C | 51% | 1019.7 hPa | 0 mm | - | 78 W/m² | - |
| 1777424401 | 12.78° C | 51% | 1019.8 hPa | 0 mm | - | 91 W/m² | - |
| 1777424097 | 13.33° C | 49% | 1019.6 hPa | 0 mm | - | 278 W/m² | - |
| 1777423794 | 15° C | 41% | 1019.6 hPa | 0 mm | - | 298 W/m² | - |
| 1777423490 | 15.56° C | 37% | 1019.2 hPa | 0 mm | - | 160 W/m² | - |
| 1777423185 | 15° C | 37% | 1019.2 hPa | 0 mm | - | 179 W/m² | - |
| 1777422878 | 15° C | 42% | 1018.9 hPa | 0 mm | - | 177 W/m² | - |
| 1777422575 | 15° C | 41% | 1019.2 hPa | 0 mm | - | 161 W/m² | - |
| 1777422271 | 15.56° C | 39% | 1019.1 hPa | 0 mm | - | 160 W/m² | - |
| 1777421965 | 15.56° C | 40% | 1019 hPa | 0 mm | - | 338 W/m² | - |
| 1777421661 | 15° C | 42% | 1019 hPa | 0 mm | - | 442 W/m² | - |
| 1777421355 | 15.56° C | 39% | 1019 hPa | 0 mm | - | 126 W/m² | - |
* Rain latest hour (hover to see other rain measurements)
** Current wind speed in m/s (hover to see current wind gust speed)